createdAt,value
2018-03-21T00:01:09.962Z,86.97
2018-03-21T00:03:38.559Z,87.26
2018-03-21T00:06:06.127Z,87.19
2018-03-21T00:08:34.580Z,87.03
2018-03-21T00:11:02.165Z,87.04
2018-03-21T00:13:29.858Z,87.21
2018-03-21T00:15:57.406Z,87.17
2018-03-21T00:18:24.977Z,87.05
2018-03-21T00:20:52.843Z,87.22
2018-03-21T00:23:20.413Z,86.87
2018-03-21T00:25:48.006Z,86.92
2018-03-21T00:44:20.622Z,87.69
2018-03-21T00:46:48.152Z,87.80
2018-03-21T00:49:15.787Z,88.12
2018-03-21T00:51:43.367Z,88.00
2018-03-21T00:54:10.893Z,87.63
2018-03-21T00:56:38.536Z,87.79
2018-03-21T00:59:06.093Z,87.71
2018-03-21T01:01:33.878Z,87.92
2018-03-21T01:04:01.453Z,87.42
2018-03-21T01:06:29.037Z,87.95
2018-03-21T01:08:57.868Z,88.65
2018-03-21T01:11:25.626Z,88.82
2018-03-21T01:13:53.204Z,88.70
2018-03-21T01:16:20.752Z,88.64
2018-03-21T01:18:48.339Z,88.41
2018-03-21T01:21:16.002Z,87.96
2018-03-21T01:23:43.561Z,87.97
2018-03-21T01:26:11.206Z,88.29
2018-03-21T01:28:38.752Z,88.59
2018-03-21T01:31:06.249Z,88.21
2018-03-21T01:33:33.824Z,89.08
2018-03-21T01:36:01.325Z,89.04
2018-03-21T01:38:28.882Z,89.15
2018-03-21T01:40:56.398Z,89.34
2018-03-21T01:43:23.931Z,89.52
2018-03-21T01:45:51.491Z,89.66
2018-03-21T01:48:19.055Z,89.70
2018-03-21T01:50:46.584Z,89.75
2018-03-21T01:53:14.089Z,90.05
2018-03-21T01:55:41.629Z,90.30
2018-03-21T01:58:09.166Z,90.58
2018-03-21T02:00:36.750Z,91.05
2018-03-21T02:03:04.283Z,90.41
2018-03-21T02:05:31.980Z,90.58
2018-03-21T02:07:59.544Z,91.00
2018-03-21T02:10:27.046Z,90.74
2018-03-21T02:12:54.642Z,91.19
2018-03-21T02:15:22.216Z,91.16
2018-03-21T02:17:49.749Z,91.20
2018-03-21T02:20:17.249Z,91.41
2018-03-21T02:22:44.794Z,91.63
2018-03-21T02:25:12.352Z,92.09
2018-03-21T02:27:39.972Z,92.77
2018-03-21T02:30:07.515Z,93.03
2018-03-21T02:32:35.033Z,93.36
2018-03-21T02:35:02.571Z,93.59
2018-03-21T02:37:30.098Z,93.54
2018-03-21T02:39:57.667Z,93.33
2018-03-21T02:42:25.237Z,93.59
2018-03-21T02:44:52.763Z,94.05
2018-03-21T02:47:20.285Z,94.20
2018-03-21T02:49:47.813Z,94.53
2018-03-21T02:52:15.340Z,94.42
2018-03-21T02:54:42.868Z,94.51
2018-03-21T02:57:10.357Z,94.52
2018-03-21T02:59:37.887Z,94.34
2018-03-21T03:02:05.419Z,94.46
2018-03-21T03:04:32.962Z,94.39
2018-03-21T03:07:00.520Z,94.38
2018-03-21T03:09:28.187Z,94.25
2018-03-21T03:11:55.691Z,94.11
2018-03-21T03:14:23.219Z,94.37
2018-03-21T03:16:50.743Z,94.72
2018-03-21T03:19:18.256Z,94.76
2018-03-21T03:21:45.764Z,94.59
2018-03-21T03:24:13.282Z,94.46
2018-03-21T03:26:40.788Z,94.47
2018-03-21T03:29:08.304Z,94.36
2018-03-21T03:31:35.801Z,94.11
2018-03-21T03:34:03.345Z,94.10
2018-03-21T03:36:30.841Z,93.87
2018-03-21T03:38:58.362Z,93.93
2018-03-21T03:41:25.887Z,93.76
2018-03-21T03:43:53.386Z,93.99
2018-03-21T03:46:20.904Z,94.05
2018-03-21T03:48:48.432Z,94.25
2018-03-21T03:51:15.950Z,94.54
2018-03-21T03:53:43.461Z,94.32
2018-03-21T03:56:10.967Z,94.00
2018-03-21T03:58:38.505Z,94.05
2018-03-21T04:01:06.018Z,94.17
2018-03-21T04:03:33.563Z,94.09
2018-03-21T04:06:01.095Z,94.02
2018-03-21T04:08:28.628Z,94.14
2018-03-21T04:10:56.131Z,93.95
2018-03-21T04:13:23.767Z,94.34
2018-03-21T04:15:51.293Z,94.46
2018-03-21T04:18:18.808Z,94.66
2018-03-21T04:20:46.321Z,94.64
2018-03-21T04:23:13.890Z,94.71
2018-03-21T04:25:41.429Z,94.60
2018-03-21T04:28:08.945Z,94.40
2018-03-21T04:30:36.467Z,94.39
2018-03-21T04:33:04.515Z,94.25
2018-03-21T04:35:32.081Z,94.26
2018-03-21T04:37:59.608Z,94.63
2018-03-21T04:40:27.129Z,94.57
2018-03-21T04:42:54.686Z,94.59
2018-03-21T04:45:22.230Z,94.89
2018-03-21T04:47:49.771Z,95.06
2018-03-21T04:50:17.287Z,94.86
2018-03-21T04:52:44.807Z,94.65
2018-03-21T04:55:12.348Z,94.85
2018-03-21T04:57:39.854Z,95.04
2018-03-21T05:00:07.436Z,95.09
2018-03-21T05:02:34.957Z,95.22
2018-03-21T05:05:02.502Z,95.03
2018-03-21T05:07:30.042Z,94.94
2018-03-21T05:09:57.552Z,94.89
2018-03-21T05:12:25.754Z,94.90
2018-03-21T05:14:54.098Z,94.87
2018-03-21T05:17:21.792Z,94.88
2018-03-21T05:19:49.411Z,95.13
2018-03-21T05:22:16.919Z,95.23
2018-03-21T05:24:44.808Z,95.51
2018-03-21T05:27:12.343Z,95.52
2018-03-21T05:29:39.924Z,95.34
2018-03-21T05:32:07.468Z,95.25
2018-03-21T05:34:35.056Z,95.07
2018-03-21T05:37:02.836Z,95.24
2018-03-21T05:39:30.348Z,95.26
2018-03-21T05:41:57.900Z,95.42
2018-03-21T05:44:25.430Z,95.27
2018-03-21T05:46:52.932Z,95.20
2018-03-21T05:49:20.460Z,95.29
2018-03-21T05:51:47.992Z,95.42
2018-03-21T05:54:16.470Z,95.29
2018-03-21T05:56:43.996Z,95.53
2018-03-21T05:59:11.516Z,95.36
2018-03-21T06:01:39.113Z,94.99
2018-03-21T06:04:06.636Z,94.36
2018-03-21T06:06:34.132Z,93.91
2018-03-21T06:09:01.654Z,92.75
2018-03-21T06:11:29.172Z,90.93
2018-03-21T06:13:56.709Z,89.41
2018-03-21T06:16:24.235Z,88.15
2018-03-21T06:18:51.728Z,88.23
2018-03-21T06:21:19.939Z,87.30
2018-03-21T06:23:47.444Z,89.33
2018-03-21T06:26:14.989Z,88.83
2018-03-21T06:28:42.529Z,88.62
2018-03-21T06:31:10.666Z,88.70
2018-03-21T06:33:38.188Z,89.76
2018-03-21T06:36:05.706Z,90.34
2018-03-21T06:38:33.267Z,89.42
2018-03-21T06:41:00.775Z,89.91
2018-03-21T06:43:28.302Z,89.56
2018-03-21T06:45:55.832Z,88.48
2018-03-21T06:48:23.337Z,84.88
2018-03-21T06:50:50.886Z,80.59
2018-03-21T06:53:18.409Z,77.42
2018-03-21T06:55:45.912Z,73.03
2018-03-21T06:58:13.430Z,71.54
2018-03-21T07:00:40.930Z,73.77
2018-03-21T07:03:08.467Z,75.34
2018-03-21T07:05:35.972Z,75.38
2018-03-21T07:08:03.555Z,74.78
2018-03-21T07:10:31.064Z,73.77
2018-03-21T07:12:58.582Z,74.45
2018-03-21T07:15:37.817Z,76.57
2018-03-21T07:18:05.397Z,77.36
2018-03-21T07:20:32.889Z,78.44
2018-03-21T07:23:00.410Z,77.58
2018-03-21T07:25:27.932Z,76.06
2018-03-21T07:27:55.466Z,76.55
2018-03-21T07:30:22.971Z,74.55
2018-03-21T07:32:50.493Z,73.45
2018-03-21T07:35:18.015Z,71.84
2018-03-21T07:37:45.535Z,70.41
2018-03-21T07:40:13.021Z,69.56
2018-03-21T07:42:40.553Z,68.60
2018-03-21T07:45:08.137Z,66.01
2018-03-21T07:47:35.638Z,64.34
2018-03-21T07:50:03.208Z,62.74
2018-03-21T07:52:30.729Z,63.66
2018-03-21T07:54:58.247Z,64.69
2018-03-21T07:57:25.752Z,64.25
2018-03-21T07:59:53.261Z,64.59
2018-03-21T08:02:20.791Z,63.87
2018-03-21T08:04:48.272Z,64.72
2018-03-21T08:07:15.770Z,62.65
2018-03-21T08:09:43.288Z,61.29
2018-03-21T08:12:10.793Z,62.15
2018-03-21T08:14:38.321Z,63.26
2018-03-21T08:17:05.859Z,62.00
2018-03-21T08:19:33.621Z,59.25
2018-03-21T08:22:01.160Z,61.57
2018-03-21T08:24:28.697Z,61.94
2018-03-21T08:26:57.010Z,60.89
2018-03-21T08:29:24.524Z,59.39
2018-03-21T08:31:52.034Z,60.10
2018-03-21T08:34:19.540Z,57.41
2018-03-21T08:36:47.100Z,57.24
2018-03-21T08:39:14.631Z,58.64
2018-03-21T08:41:42.139Z,57.19
2018-03-21T08:44:09.676Z,59.79
2018-03-21T08:46:37.183Z,58.26
2018-03-21T08:49:04.673Z,56.91
2018-03-21T08:51:32.157Z,59.11
2018-03-21T08:54:00.303Z,58.82
2018-03-21T08:56:27.823Z,59.41
2018-03-21T08:58:55.363Z,62.44
2018-03-21T09:01:22.920Z,62.09
2018-03-21T09:03:50.435Z,63.96
2018-03-21T09:06:17.924Z,62.38
2018-03-21T09:08:45.453Z,64.19
2018-03-21T09:11:12.963Z,64.62
2018-03-21T09:13:40.476Z,64.93
2018-03-21T09:16:07.987Z,64.91
2018-03-21T09:18:35.496Z,63.91
2018-03-21T09:21:03.036Z,64.75
2018-03-21T09:23:30.566Z,65.82
2018-03-21T09:25:58.072Z,66.79
2018-03-21T09:28:25.610Z,66.98
2018-03-21T09:30:53.139Z,67.43
2018-03-21T09:33:20.660Z,66.83
2018-03-21T09:35:48.290Z,66.20
2018-03-21T09:38:15.815Z,65.91
2018-03-21T09:40:43.323Z,66.01
2018-03-21T09:43:10.830Z,66.07
2018-03-21T09:45:38.340Z,66.16
2018-03-21T09:48:05.883Z,65.94
2018-03-21T09:50:33.421Z,66.75
2018-03-21T09:53:00.980Z,66.99
2018-03-21T09:55:28.487Z,68.84
2018-03-21T09:57:55.996Z,67.32
2018-03-21T10:00:23.519Z,68.21
2018-03-21T10:02:51.030Z,69.33
2018-03-21T10:05:18.570Z,67.15
2018-03-21T10:07:46.073Z,68.38
2018-03-21T10:10:13.565Z,67.78
2018-03-21T10:12:41.127Z,67.90
2018-03-21T10:15:08.640Z,67.48
2018-03-21T10:17:36.206Z,68.61
2018-03-21T10:20:03.769Z,67.68
2018-03-21T10:22:31.286Z,66.62
2018-03-21T10:24:58.831Z,66.45
2018-03-21T10:27:26.361Z,66.97
2018-03-21T10:29:53.865Z,66.46
2018-03-21T10:32:21.380Z,67.60
2018-03-21T10:34:48.895Z,66.12
2018-03-21T10:37:16.441Z,64.82
2018-03-21T10:39:44.045Z,65.47
2018-03-21T10:42:11.664Z,66.12
2018-03-21T10:44:39.187Z,67.25
2018-03-21T10:47:06.700Z,69.02
2018-03-21T10:49:34.197Z,68.38
2018-03-21T10:52:01.749Z,66.83
2018-03-21T10:54:29.242Z,68.14
2018-03-21T10:56:57.729Z,67.46
2018-03-21T10:59:25.269Z,67.40
2018-03-21T11:01:58.386Z,65.60
2018-03-21T11:04:25.928Z,66.34
2018-03-21T11:06:53.431Z,66.24
2018-03-21T11:09:20.956Z,68.20
2018-03-21T11:11:48.453Z,67.01
2018-03-21T11:14:15.952Z,66.11
2018-03-21T11:16:43.488Z,65.90
2018-03-21T11:19:11.037Z,64.65
2018-03-21T11:21:38.585Z,64.12
2018-03-21T11:24:06.197Z,64.67
2018-03-21T11:26:33.759Z,65.20
2018-03-21T11:29:01.307Z,66.57
2018-03-21T11:31:28.821Z,65.84
2018-03-21T11:33:56.348Z,66.26
2018-03-21T11:36:23.905Z,66.37
2018-03-21T11:38:51.443Z,66.45
2018-03-21T11:41:18.968Z,65.91
2018-03-21T11:43:46.478Z,65.17
2018-03-21T11:46:14.019Z,64.75
2018-03-21T11:48:41.519Z,66.59
2018-03-21T11:51:09.065Z,66.33
2018-03-21T11:53:36.639Z,64.98
2018-03-21T11:56:04.186Z,64.80
2018-03-21T11:58:31.677Z,62.82
2018-03-21T12:00:59.207Z,63.43
2018-03-21T12:03:26.748Z,63.69
2018-03-21T12:05:54.245Z,63.36
2018-03-21T12:08:21.773Z,60.72
2018-03-21T12:10:49.296Z,60.41
2018-03-21T12:13:16.955Z,59.73
2018-03-21T12:15:44.712Z,60.23
2018-03-21T12:18:13.889Z,59.93
2018-03-21T12:20:41.432Z,59.71
2018-03-21T12:23:08.984Z,60.33
2018-03-21T12:25:36.501Z,58.57
2018-03-21T12:28:04.056Z,58.92
2018-03-21T12:30:31.563Z,58.19
2018-03-21T12:32:59.081Z,58.99
2018-03-21T12:35:26.577Z,57.71
2018-03-21T12:37:54.124Z,57.24
2018-03-21T12:40:21.682Z,54.54
2018-03-21T12:42:49.184Z,57.04
2018-03-21T12:45:16.716Z,53.96
2018-03-21T12:47:45.091Z,54.05
2018-03-21T12:50:12.705Z,55.78
2018-03-21T12:52:40.163Z,54.89
2018-03-21T12:55:07.674Z,52.34
2018-03-21T12:57:35.238Z,53.16
2018-03-21T13:00:02.756Z,52.96
2018-03-21T13:02:30.381Z,53.74
2018-03-21T13:04:57.878Z,53.21
2018-03-21T13:07:25.374Z,52.25
2018-03-21T13:09:52.877Z,53.05
2018-03-21T13:12:20.388Z,50.94
2018-03-21T13:14:47.914Z,51.57
2018-03-21T13:17:15.673Z,52.25
2018-03-21T13:19:43.229Z,51.50
2018-03-21T13:22:10.764Z,53.13
2018-03-21T13:24:38.280Z,54.47
2018-03-21T13:27:05.813Z,52.67
2018-03-21T13:29:33.334Z,51.64
2018-03-21T13:32:00.838Z,51.81
2018-03-21T13:34:28.379Z,50.37
2018-03-21T13:36:55.886Z,47.71
2018-03-21T13:39:23.417Z,47.22
2018-03-21T13:41:50.931Z,48.86
2018-03-21T13:44:18.464Z,47.96
2018-03-21T13:46:45.988Z,47.66
2018-03-21T13:49:13.495Z,48.49
2018-03-21T13:51:40.996Z,47.11
2018-03-21T13:54:08.554Z,47.15
2018-03-21T13:56:36.038Z,46.88
2018-03-21T13:59:04.049Z,47.27
2018-03-21T14:01:31.593Z,48.25
2018-03-21T14:03:59.101Z,50.03
2018-03-21T14:06:26.656Z,51.28
2018-03-21T14:08:54.210Z,50.03
2018-03-21T14:11:21.710Z,51.28
2018-03-21T14:13:49.270Z,51.19
2018-03-21T14:16:16.830Z,52.47
2018-03-21T14:18:44.409Z,51.13
2018-03-21T14:21:11.925Z,48.93
2018-03-21T14:23:39.465Z,50.29
2018-03-21T14:26:06.994Z,51.93
2018-03-21T14:28:34.539Z,51.70
2018-03-21T14:31:02.245Z,52.82
2018-03-21T14:33:29.774Z,51.70
2018-03-21T14:35:57.309Z,52.82
2018-03-21T14:38:24.821Z,52.07
2018-03-21T14:40:52.402Z,51.13
2018-03-21T14:43:19.937Z,51.69
2018-03-21T14:45:47.436Z,52.47
2018-03-21T14:48:14.945Z,53.78
2018-03-21T14:50:42.480Z,53.17
2018-03-21T14:53:09.969Z,53.75
2018-03-21T14:55:37.565Z,52.98
2018-03-21T14:58:05.086Z,52.89
2018-03-21T15:00:32.599Z,53.46
2018-03-21T15:03:00.107Z,53.72
2018-03-21T15:05:27.617Z,54.16
2018-03-21T15:07:55.141Z,54.06
2018-03-21T15:10:22.657Z,54.75
2018-03-21T15:12:50.221Z,54.91
2018-03-21T15:15:17.742Z,54.56
2018-03-21T15:17:45.357Z,54.80
2018-03-21T15:20:12.915Z,55.34
2018-03-21T15:22:40.423Z,56.39
2018-03-21T15:25:07.963Z,56.28
2018-03-21T15:27:35.560Z,56.12
2018-03-21T15:30:03.101Z,56.88
2018-03-21T15:32:30.674Z,56.60
2018-03-21T15:34:58.182Z,56.77
2018-03-21T15:37:25.828Z,57.44
2018-03-21T15:39:53.290Z,58.89
2018-03-21T15:42:20.789Z,60.18
2018-03-21T15:44:48.313Z,60.33
2018-03-21T15:47:15.821Z,61.03
2018-03-21T15:49:43.343Z,60.69
2018-03-21T15:52:10.857Z,61.20
2018-03-21T15:54:38.386Z,62.24
2018-03-21T15:57:05.908Z,62.20
2018-03-21T15:59:33.415Z,62.68
2018-03-21T16:02:00.953Z,63.33
2018-03-21T16:04:28.648Z,63.22
2018-03-21T16:06:56.287Z,63.04
2018-03-21T16:09:23.836Z,62.42
2018-03-21T16:11:51.365Z,62.08
2018-03-21T16:14:18.848Z,61.52
2018-03-21T16:16:46.424Z,61.54
2018-03-21T16:19:13.959Z,62.16
2018-03-21T16:21:41.488Z,61.81
2018-03-21T16:24:09.242Z,62.30
2018-03-21T16:26:36.747Z,62.85
2018-03-21T16:29:04.242Z,63.22
2018-03-21T16:31:31.796Z,63.36
2018-03-21T16:33:59.303Z,63.12
2018-03-21T16:36:26.879Z,63.43
2018-03-21T16:38:54.419Z,63.21
2018-03-21T16:41:21.921Z,64.18
2018-03-21T16:43:49.444Z,63.90
2018-03-21T16:46:17.173Z,63.82
2018-03-21T16:48:45.051Z,64.26
2018-03-21T16:51:12.741Z,64.78
2018-03-21T16:53:40.359Z,65.35
2018-03-21T16:56:08.162Z,65.71
2018-03-21T16:58:35.993Z,66.42
2018-03-21T17:01:05.459Z,67.27
2018-03-21T17:03:34.788Z,67.79
2018-03-21T17:06:02.460Z,68.99
2018-03-21T17:08:30.310Z,68.91
2018-03-21T17:10:59.311Z,69.63
2018-03-21T17:13:27.972Z,70.04
2018-03-21T17:15:57.695Z,70.47
2018-03-21T17:18:25.235Z,71.38
2018-03-21T17:20:52.748Z,71.54
2018-03-21T17:23:21.918Z,71.45
2018-03-21T17:25:50.839Z,72.04
2018-03-21T17:28:18.901Z,71.99
2018-03-21T17:30:47.060Z,72.32
2018-03-21T17:33:14.675Z,72.69
2018-03-21T17:35:42.793Z,72.75
2018-03-21T17:38:10.759Z,72.93
2018-03-21T17:40:38.277Z,73.56
2018-03-21T17:43:06.896Z,73.60
2018-03-21T17:45:35.284Z,73.78
2018-03-21T17:48:02.861Z,74.01
2018-03-21T17:50:31.118Z,73.67
2018-03-21T17:52:58.639Z,73.46
2018-03-21T17:55:28.040Z,73.72
2018-03-21T17:57:55.762Z,73.94
2018-03-21T18:00:24.465Z,74.31
2018-03-21T18:02:52.373Z,74.32
2018-03-21T18:05:20.639Z,74.28
2018-03-21T18:07:48.413Z,74.41
2018-03-21T18:10:16.020Z,74.59
2018-03-21T18:12:43.884Z,74.71
2018-03-21T18:15:13.041Z,75.25
2018-03-21T18:17:41.190Z,75.56
2018-03-21T18:20:09.005Z,74.60
2018-03-21T18:22:36.665Z,74.63
2018-03-21T18:25:04.406Z,74.66
2018-03-21T18:27:32.120Z,75.62
2018-03-21T18:30:00.117Z,74.51
2018-03-21T18:32:27.794Z,75.31
2018-03-21T18:34:55.637Z,76.21
2018-03-21T18:37:23.212Z,75.52
2018-03-21T18:39:51.045Z,75.51
2018-03-21T18:42:18.702Z,76.28
2018-03-21T18:44:46.377Z,76.47
2018-03-21T18:47:14.008Z,76.54
2018-03-21T18:49:41.559Z,76.72
2018-03-21T18:52:09.127Z,76.90
2018-03-21T18:54:36.700Z,77.28
2018-03-21T18:57:04.269Z,77.31
2018-03-21T18:59:32.006Z,77.72
2018-03-21T19:01:59.769Z,77.88
2018-03-21T19:04:27.432Z,77.16
2018-03-21T19:06:55.056Z,77.78
2018-03-21T19:09:22.743Z,77.26
2018-03-21T19:11:50.982Z,76.89
2018-03-21T19:14:18.578Z,77.65
2018-03-21T19:16:46.137Z,77.27
2018-03-21T19:19:13.700Z,77.55
2018-03-21T19:21:42.513Z,77.64
2018-03-21T19:24:10.250Z,77.78
2018-03-21T19:26:37.809Z,78.35
2018-03-21T19:29:06.028Z,78.74
2018-03-21T19:31:33.617Z,78.30
2018-03-21T19:34:01.457Z,78.73
2018-03-21T19:36:29.022Z,78.62
2018-03-21T19:38:56.794Z,77.87
2018-03-21T19:41:24.366Z,79.10
2018-03-21T19:43:52.018Z,78.64
2018-03-21T19:46:19.626Z,78.76
2018-03-21T19:48:47.234Z,78.69
2018-03-21T19:51:14.949Z,78.95
2018-03-21T19:53:42.591Z,78.91
2018-03-21T19:56:16.156Z,79.16
2018-03-21T19:58:43.931Z,80.05
2018-03-21T20:01:11.493Z,79.24
2018-03-21T20:03:40.924Z,80.00
2018-03-21T20:06:08.651Z,79.61
2018-03-21T20:08:39.631Z,80.09
2018-03-21T20:11:08.000Z,79.77
2018-03-21T20:13:35.511Z,80.39
2018-03-21T20:16:03.048Z,80.55
2018-03-21T20:18:30.639Z,79.99
2018-03-21T20:20:58.188Z,80.28
2018-03-21T20:23:25.715Z,80.36
2018-03-21T20:25:53.457Z,80.24
2018-03-21T20:28:21.024Z,80.28
2018-03-21T20:30:48.672Z,80.57
2018-03-21T20:33:16.209Z,80.67
2018-03-21T20:35:43.831Z,80.66
2018-03-21T20:38:11.369Z,80.92
2018-03-21T20:40:38.907Z,81.11
2018-03-21T20:43:06.437Z,80.73
2018-03-21T20:45:33.935Z,81.52
2018-03-21T20:48:01.609Z,81.35
2018-03-21T20:50:29.476Z,81.88
2018-03-21T20:52:57.273Z,82.20
2018-03-21T20:55:24.982Z,81.67
2018-03-21T20:57:54.296Z,81.45
2018-03-21T21:00:22.031Z,81.53
2018-03-21T21:02:49.915Z,81.41
2018-03-21T21:05:17.597Z,82.07
2018-03-21T21:07:45.237Z,82.52
2018-03-21T21:10:12.855Z,82.16
2018-03-21T21:12:40.665Z,81.98
2018-03-21T21:15:08.327Z,81.99
2018-03-21T21:17:35.907Z,81.94
2018-03-21T21:20:03.703Z,81.83
2018-03-21T21:22:31.410Z,82.13
2018-03-21T21:24:59.154Z,82.60
2018-03-21T21:27:26.841Z,83.05
2018-03-21T21:29:54.423Z,82.24
2018-03-21T21:32:22.186Z,82.61
2018-03-21T21:34:49.784Z,82.54
2018-03-21T21:37:17.406Z,82.21
2018-03-21T21:39:49.524Z,82.48
2018-03-21T21:42:17.140Z,82.73
2018-03-21T21:44:44.796Z,82.96
2018-03-21T21:47:12.346Z,82.97
2018-03-21T21:49:39.924Z,82.72
2018-03-21T21:52:07.505Z,82.65
2018-03-21T21:54:35.121Z,82.90
2018-03-21T21:57:02.664Z,82.98
2018-03-21T21:59:30.272Z,82.72
2018-03-21T22:01:57.797Z,82.96
2018-03-21T22:04:25.326Z,82.41
2018-03-21T22:06:52.997Z,82.84
2018-03-21T22:09:20.500Z,82.66
2018-03-21T22:11:48.044Z,82.97
2018-03-21T22:14:16.622Z,82.64
2018-03-21T22:16:44.201Z,83.17
2018-03-21T22:19:11.763Z,83.39
2018-03-21T22:21:39.370Z,83.25
2018-03-21T22:24:06.876Z,83.20
2018-03-21T22:26:34.396Z,83.08
2018-03-21T22:29:01.958Z,83.18
2018-03-21T22:31:29.470Z,83.36
2018-03-21T22:33:57.024Z,83.29
2018-03-21T22:36:24.551Z,83.63
2018-03-21T22:38:52.193Z,84.22
2018-03-21T22:41:19.743Z,84.32
2018-03-21T22:43:47.309Z,83.60
2018-03-21T22:46:14.838Z,83.89
2018-03-21T22:48:42.335Z,84.18
2018-03-21T22:51:09.852Z,84.14
2018-03-21T22:53:37.373Z,84.71
2018-03-21T22:56:04.875Z,84.74
2018-03-21T22:58:32.399Z,83.74
2018-03-21T23:01:00.020Z,83.67
2018-03-21T23:03:27.660Z,83.78
2018-03-21T23:05:55.195Z,83.78
2018-03-21T23:08:23.558Z,84.31
2018-03-21T23:10:51.098Z,84.23
2018-03-21T23:13:18.646Z,84.10
2018-03-21T23:15:46.922Z,83.74
2018-03-21T23:18:15.296Z,83.94
2018-03-21T23:20:42.832Z,84.04
2018-03-21T23:23:10.385Z,84.08
2018-03-21T23:25:37.907Z,84.17
2018-03-21T23:28:05.530Z,83.91
2018-03-21T23:30:33.074Z,83.58
2018-03-21T23:33:00.605Z,83.77
2018-03-21T23:35:28.933Z,83.84
2018-03-21T23:37:56.475Z,84.19
2018-03-21T23:40:24.005Z,83.42
2018-03-21T23:42:51.518Z,83.43
2018-03-21T23:45:19.370Z,84.41
2018-03-21T23:47:46.923Z,84.00
2018-03-21T23:50:14.456Z,84.07
2018-03-21T23:52:41.963Z,83.57
2018-03-21T23:55:10.076Z,83.85
2018-03-21T23:57:37.613Z,83.89
